createdAt,value
2023-01-17T00:02:19.336Z,6.22
2023-01-17T00:05:06.050Z,6.38
2023-01-17T00:07:52.812Z,6.20
2023-01-17T00:10:26.373Z,6.33
2023-01-17T00:12:55.692Z,6.37
2023-01-17T00:15:24.489Z,6.56
2023-01-17T00:17:53.591Z,6.79
2023-01-17T00:20:42.666Z,6.36
2023-01-17T00:23:43.386Z,6.61
2023-01-17T00:26:18.560Z,6.84
2023-01-17T00:28:48.020Z,6.78
2023-01-17T00:31:17.019Z,6.91
2023-01-17T00:33:45.110Z,6.50
2023-01-17T00:36:13.332Z,6.78
2023-01-17T00:38:41.610Z,6.86
2023-01-17T00:41:13.047Z,6.78
2023-01-17T00:43:59.629Z,6.40
2023-01-17T00:46:46.010Z,6.33
2023-01-17T00:49:32.179Z,6.71
2023-01-17T00:52:19.310Z,6.79
2023-01-17T00:55:05.438Z,6.73
2023-01-17T00:57:51.500Z,6.61
2023-01-17T01:00:38.265Z,6.60
2023-01-17T01:03:30.875Z,6.45
2023-01-17T01:06:17.059Z,6.50
2023-01-17T01:09:03.463Z,6.55
2023-01-17T01:11:49.800Z,6.70
2023-01-17T01:14:36.179Z,6.65
2023-01-17T01:17:23.090Z,6.69
2023-01-17T01:20:09.438Z,6.64
2023-01-17T01:22:55.891Z,6.50
2023-01-17T01:25:42.597Z,6.24
2023-01-17T01:28:30.850Z,6.43
2023-01-17T01:31:22.072Z,6.26
2023-01-17T01:33:53.765Z,6.08
2023-01-17T01:36:22.094Z,6.37
2023-01-17T01:38:50.567Z,6.51
2023-01-17T01:41:18.529Z,6.47
2023-01-17T01:43:51.949Z,6.46
2023-01-17T01:46:25.310Z,6.38
2023-01-17T01:49:03.331Z,6.30
2023-01-17T01:51:41.163Z,6.38
2023-01-17T01:54:18.625Z,6.30
2023-01-17T01:56:49.764Z,6.34
2023-01-17T01:59:20.408Z,6.32
2023-01-17T02:01:50.652Z,6.26
2023-01-17T02:04:20.221Z,5.92
2023-01-17T02:06:51.696Z,5.75
2023-01-17T02:09:21.071Z,6.02
2023-01-17T02:11:49.918Z,6.34
2023-01-17T02:14:19.630Z,6.47
2023-01-17T02:17:02.462Z,6.07
2023-01-17T02:20:20.551Z,5.96
2023-01-17T02:22:54.366Z,6.17
2023-01-17T02:25:34.201Z,6.47
2023-01-17T02:28:08.060Z,6.57
2023-01-17T02:30:38.456Z,6.43
2023-01-17T02:33:17.126Z,6.09
2023-01-17T02:36:07.033Z,5.81
2023-01-17T02:39:09.630Z,5.76
2023-01-17T02:41:45.034Z,5.85
2023-01-17T02:44:18.412Z,5.92
2023-01-17T02:46:51.577Z,5.90
2023-01-17T02:49:24.464Z,5.84
2023-01-17T02:52:27.046Z,5.67
2023-01-17T02:55:03.828Z,5.79
2023-01-17T02:58:22.114Z,5.77
2023-01-17T03:01:08.125Z,5.98
2023-01-17T03:03:47.091Z,5.86
2023-01-17T03:06:47.532Z,5.81
2023-01-17T03:09:17.377Z,5.95
2023-01-17T03:11:45.712Z,5.91
2023-01-17T03:14:13.634Z,5.79
2023-01-17T03:16:41.891Z,5.74
2023-01-17T03:19:10.225Z,5.77
2023-01-17T03:21:38.128Z,5.75
2023-01-17T03:24:06.082Z,5.73
2023-01-17T03:26:34.477Z,5.74
2023-01-17T03:29:02.509Z,5.61
2023-01-17T03:31:30.478Z,5.61
2023-01-17T03:33:58.504Z,5.58
2023-01-17T03:36:26.444Z,5.50
2023-01-17T03:38:54.534Z,5.55
2023-01-17T03:41:26.356Z,5.70
2023-01-17T03:43:54.201Z,6.00
2023-01-17T03:46:28.690Z,6.16
2023-01-17T03:48:56.497Z,6.40
2023-01-17T03:51:24.610Z,6.38
2023-01-17T03:53:52.726Z,6.37
2023-01-17T03:56:20.636Z,6.17
2023-01-17T03:58:48.860Z,6.28
2023-01-17T04:01:17.085Z,6.35
2023-01-17T04:03:45.186Z,6.23
2023-01-17T04:06:13.295Z,5.98
2023-01-17T04:08:41.885Z,5.97
2023-01-17T04:11:09.784Z,5.82
2023-01-17T04:13:37.633Z,6.09
2023-01-17T04:16:09.568Z,6.16
2023-01-17T04:18:37.473Z,6.02
2023-01-17T04:21:05.462Z,6.03
2023-01-17T04:23:33.481Z,5.77
2023-01-17T04:26:01.476Z,5.57
2023-01-17T04:28:29.907Z,5.35
2023-01-17T04:31:01.272Z,5.49
2023-01-17T04:33:29.526Z,5.58
2023-01-17T04:35:57.683Z,5.52
2023-01-17T04:38:25.665Z,5.58
2023-01-17T04:40:53.883Z,5.71
2023-01-17T04:43:21.882Z,5.80
2023-01-17T04:45:55.350Z,5.68
2023-01-17T04:48:24.395Z,5.89
2023-01-17T04:50:52.371Z,6.03
2023-01-17T04:53:20.347Z,5.85
2023-01-17T04:55:48.194Z,5.86
2023-01-17T04:58:16.336Z,6.20
2023-01-17T05:00:44.252Z,6.12
2023-01-17T05:03:12.243Z,5.96
2023-01-17T05:05:40.255Z,6.20
2023-01-17T05:08:08.485Z,6.28
2023-01-17T05:10:36.717Z,6.21
2023-01-17T05:13:04.890Z,6.05
2023-01-17T05:15:33.042Z,6.24
2023-01-17T05:18:00.898Z,6.17
2023-01-17T05:20:28.961Z,6.07
2023-01-17T05:22:57.592Z,5.77
2023-01-17T05:25:27.982Z,5.84
2023-01-17T05:27:56.489Z,6.10
2023-01-17T05:30:24.583Z,6.06
2023-01-17T05:32:55.422Z,6.04
2023-01-17T05:35:26.093Z,5.87
2023-01-17T05:37:54.267Z,5.93
2023-01-17T05:40:28.103Z,5.77
2023-01-17T05:42:57.688Z,5.64
2023-01-17T05:45:28.370Z,5.77
2023-01-17T05:47:58.237Z,5.83
2023-01-17T05:50:30.815Z,5.76
2023-01-17T05:53:01.537Z,5.85
2023-01-17T05:55:30.574Z,5.82
2023-01-17T05:57:59.893Z,5.93
2023-01-17T06:00:28.657Z,5.88
2023-01-17T06:02:57.771Z,5.88
2023-01-17T06:05:27.416Z,5.78
2023-01-17T06:07:56.698Z,5.75
2023-01-17T06:10:25.272Z,5.98
2023-01-17T06:13:08.131Z,5.84
2023-01-17T06:15:37.628Z,5.86
2023-01-17T06:18:07.589Z,5.88
2023-01-17T06:20:36.173Z,5.71
2023-01-17T06:23:06.327Z,5.87
2023-01-17T06:25:52.150Z,5.68
2023-01-17T06:28:22.834Z,5.56
2023-01-17T06:30:50.809Z,5.61
2023-01-17T06:33:18.709Z,5.66
2023-01-17T06:35:51.576Z,5.56
2023-01-17T06:38:20.047Z,5.48
2023-01-17T06:40:48.474Z,5.48
2023-01-17T06:43:16.896Z,5.52
2023-01-17T06:45:44.902Z,5.37
2023-01-17T06:48:12.973Z,5.37
2023-01-17T06:50:41.379Z,5.49
2023-01-17T06:53:10.295Z,5.33
2023-01-17T06:55:40.442Z,5.57
2023-01-17T06:58:09.577Z,5.54
2023-01-17T07:00:40.363Z,5.53
2023-01-17T07:03:20.611Z,5.39
2023-01-17T07:05:49.408Z,5.36
2023-01-17T07:08:18.258Z,5.39
2023-01-17T07:10:47.904Z,5.12
2023-01-17T07:13:15.865Z,4.86
2023-01-17T07:15:44.149Z,4.80
2023-01-17T07:18:12.475Z,4.86
2023-01-17T07:20:41.462Z,4.70
2023-01-17T07:23:09.474Z,4.66
2023-01-17T07:25:37.588Z,4.61
2023-01-17T07:28:09.067Z,4.60
2023-01-17T07:30:37.264Z,4.74
2023-01-17T07:33:05.990Z,4.82
2023-01-17T07:35:34.142Z,4.86
2023-01-17T07:38:02.258Z,4.98
2023-01-17T07:40:31.066Z,4.99
2023-01-17T07:43:02.695Z,5.13
2023-01-17T07:45:32.716Z,5.11
2023-01-17T07:48:03.897Z,5.15
2023-01-17T07:50:32.212Z,5.24
2023-01-17T07:53:00.243Z,5.22
2023-01-17T07:55:28.672Z,5.21
2023-01-17T07:57:56.926Z,5.35
2023-01-17T08:00:29.205Z,5.43
2023-01-17T08:03:01.224Z,5.43
2023-01-17T08:05:30.816Z,5.42
2023-01-17T08:07:58.759Z,5.43
2023-01-17T08:10:26.839Z,5.56
2023-01-17T08:12:55.746Z,5.59
2023-01-17T08:15:26.709Z,5.55
2023-01-17T08:17:54.689Z,5.59
2023-01-17T08:20:22.805Z,5.77
2023-01-17T08:22:54.737Z,5.97
2023-01-17T08:25:24.966Z,5.96
2023-01-17T08:27:57.717Z,5.92
2023-01-17T08:30:26.605Z,6.03
2023-01-17T08:32:54.759Z,5.83
2023-01-17T08:35:23.842Z,5.86
2023-01-17T08:37:54.599Z,6.11
2023-01-17T08:40:22.974Z,5.92
2023-01-17T08:42:55.760Z,6.08
2023-01-17T08:45:24.116Z,6.16
2023-01-17T08:47:52.167Z,6.16
2023-01-17T08:50:44.708Z,6.06
2023-01-17T08:53:31.600Z,6.21
2023-01-17T08:56:03.979Z,6.35
2023-01-17T08:58:32.435Z,6.23
2023-01-17T09:01:05.332Z,6.15
2023-01-17T09:03:34.224Z,6.09
2023-01-17T09:06:09.779Z,5.97
2023-01-17T09:08:37.822Z,6.26
2023-01-17T09:11:11.183Z,6.28
2023-01-17T09:13:39.743Z,6.27
2023-01-17T09:16:08.383Z,6.18
2023-01-17T09:18:36.349Z,6.19
2023-01-17T09:21:19.941Z,6.07
2023-01-17T09:23:47.631Z,6.09
2023-01-17T09:26:26.867Z,5.98
2023-01-17T09:28:54.871Z,6.08
2023-01-17T09:31:23.804Z,6.03
2023-01-17T09:33:52.134Z,6.05
2023-01-17T09:36:29.275Z,5.93
2023-01-17T09:38:58.454Z,6.02
2023-01-17T09:41:42.826Z,5.99
2023-01-17T09:44:29.719Z,5.92
2023-01-17T09:47:03.836Z,5.92
2023-01-17T09:49:43.430Z,6.06
2023-01-17T09:52:23.605Z,6.00
2023-01-17T09:54:51.720Z,6.03
2023-01-17T09:57:38.379Z,5.90
2023-01-17T10:00:09.006Z,5.97
2023-01-17T10:03:13.594Z,5.95
2023-01-17T10:05:55.574Z,5.88
2023-01-17T10:08:31.851Z,6.04
2023-01-17T10:11:23.053Z,6.16
2023-01-17T10:14:35.713Z,6.27
2023-01-17T10:17:16.229Z,5.98
2023-01-17T10:20:13.289Z,6.07
2023-01-17T10:23:22.805Z,6.17
2023-01-17T10:25:53.145Z,6.15
2023-01-17T10:28:33.506Z,6.34
2023-01-17T10:31:13.012Z,6.27
2023-01-17T10:34:19.401Z,6.21
2023-01-17T10:36:53.987Z,6.02
2023-01-17T10:39:24.333Z,6.25
2023-01-17T10:42:02.881Z,6.13
2023-01-17T10:44:36.088Z,6.28
2023-01-17T10:47:20.615Z,6.25
2023-01-17T10:49:52.749Z,6.41
2023-01-17T10:52:47.347Z,6.22
2023-01-17T10:55:44.163Z,6.14
2023-01-17T10:58:13.200Z,6.35
2023-01-17T11:00:50.258Z,6.36
2023-01-17T11:03:23.910Z,6.33
2023-01-17T11:06:20.933Z,6.35
2023-01-17T11:08:51.591Z,5.90
2023-01-17T11:11:23.336Z,6.08
2023-01-17T11:13:54.670Z,6.14
2023-01-17T11:16:26.719Z,6.13
2023-01-17T11:19:32.373Z,6.15
2023-01-17T11:22:02.851Z,6.16
2023-01-17T11:24:38.985Z,6.26
2023-01-17T11:27:08.564Z,6.08
2023-01-17T11:29:39.142Z,6.02
2023-01-17T11:32:24.512Z,6.17
2023-01-17T11:35:21.624Z,5.93
2023-01-17T11:38:16.418Z,5.88
2023-01-17T11:40:45.986Z,5.72
2023-01-17T11:43:26.616Z,5.91
2023-01-17T11:46:20.651Z,5.96
2023-01-17T11:48:53.444Z,5.88
2023-01-17T11:51:42.608Z,5.85
2023-01-17T11:54:28.583Z,5.72
2023-01-17T11:57:01.566Z,5.84
2023-01-17T11:59:30.034Z,5.76
2023-01-17T12:02:13.128Z,5.76
2023-01-17T12:04:47.797Z,5.96
2023-01-17T12:07:42.611Z,5.81
2023-01-17T12:10:59.781Z,5.63
2023-01-17T12:13:55.329Z,5.83
2023-01-17T12:16:34.904Z,6.01
2023-01-17T12:19:18.514Z,6.12
2023-01-17T12:22:04.873Z,6.02
2023-01-17T12:24:55.259Z,6.01
2023-01-17T12:27:31.592Z,6.14
2023-01-17T12:30:20.681Z,6.25
2023-01-17T12:32:57.601Z,6.39
2023-01-17T12:35:40.257Z,6.34
2023-01-17T12:38:31.774Z,6.09
2023-01-17T12:41:11.355Z,6.28
2023-01-17T12:43:43.338Z,6.16
2023-01-17T12:46:34.061Z,5.96
2023-01-17T12:49:16.433Z,6.03
2023-01-17T12:51:47.461Z,6.31
2023-01-17T12:54:24.334Z,6.50
2023-01-17T12:57:18.830Z,6.57
2023-01-17T13:00:05.006Z,6.46
2023-01-17T13:02:38.925Z,6.14
2023-01-17T13:05:26.593Z,6.17
2023-01-17T13:08:12.998Z,5.94
2023-01-17T13:10:48.729Z,5.87
2023-01-17T13:13:22.647Z,5.89
2023-01-17T13:15:55.405Z,5.91
2023-01-17T13:18:26.442Z,5.83
2023-01-17T13:21:09.587Z,5.86
2023-01-17T13:24:07.737Z,5.87
2023-01-17T13:26:53.284Z,5.74
2023-01-17T13:29:31.107Z,5.88
2023-01-17T13:32:10.495Z,5.83
2023-01-17T13:34:56.791Z,5.90
2023-01-17T13:37:43.472Z,5.89
2023-01-17T13:40:29.726Z,5.83
2023-01-17T13:43:01.129Z,5.83
2023-01-17T13:45:38.085Z,6.14
2023-01-17T13:48:18.212Z,6.23
2023-01-17T13:50:53.093Z,6.10
2023-01-17T13:53:35.714Z,6.08
2023-01-17T13:56:13.252Z,5.97
2023-01-17T13:58:58.318Z,5.92
2023-01-17T14:01:26.340Z,6.17
2023-01-17T14:03:54.351Z,6.25
2023-01-17T14:06:41.419Z,6.28
2023-01-17T14:09:27.598Z,6.21
2023-01-17T14:12:05.918Z,6.41
2023-01-17T14:14:40.260Z,6.57
2023-01-17T14:17:26.924Z,6.74
2023-01-17T14:20:16.857Z,6.70
2023-01-17T14:22:49.512Z,6.42
2023-01-17T14:25:24.625Z,6.42
2023-01-17T14:28:09.067Z,6.36
2023-01-17T14:30:38.318Z,6.33
2023-01-17T14:33:16.855Z,6.95
2023-01-17T14:35:55.912Z,6.93
2023-01-17T14:38:29.670Z,7.05
2023-01-17T14:41:11.928Z,7.05
2023-01-17T14:43:43.002Z,6.91
2023-01-17T14:46:27.055Z,6.93
2023-01-17T14:49:06.651Z,7.01
2023-01-17T14:51:38.609Z,6.99
2023-01-17T14:54:21.143Z,7.07
2023-01-17T14:56:48.790Z,6.76
2023-01-17T14:59:21.613Z,6.95
2023-01-17T15:02:06.770Z,6.91
2023-01-17T15:04:39.464Z,6.88
2023-01-17T15:07:12.729Z,6.71
2023-01-17T15:09:44.068Z,7.01
2023-01-17T15:12:19.127Z,6.88
2023-01-17T15:14:46.769Z,6.78
2023-01-17T15:17:20.143Z,6.62
2023-01-17T15:19:56.803Z,6.72
2023-01-17T15:22:26.079Z,6.62
2023-01-17T15:24:54.830Z,6.70
2023-01-17T15:27:24.711Z,6.69
2023-01-17T15:29:52.783Z,6.67
2023-01-17T15:32:27.984Z,6.62
2023-01-17T15:34:57.113Z,6.45
2023-01-17T15:37:32.776Z,6.26
2023-01-17T15:40:21.519Z,6.25
2023-01-17T15:42:52.368Z,6.12
2023-01-17T15:45:32.401Z,6.23
2023-01-17T15:48:27.794Z,6.15
2023-01-17T15:50:58.962Z,6.02
2023-01-17T15:53:32.575Z,6.02
2023-01-17T15:56:00.963Z,6.00
2023-01-17T15:58:30.557Z,5.98
2023-01-17T16:00:58.784Z,5.92
2023-01-17T16:03:29.577Z,5.89
2023-01-17T16:06:02.967Z,5.78
2023-01-17T16:08:33.666Z,5.81
2023-01-17T16:11:03.480Z,5.86
2023-01-17T16:13:37.924Z,5.88
2023-01-17T16:16:15.269Z,5.84
2023-01-17T16:18:44.237Z,5.74
2023-01-17T16:21:22.595Z,5.73
2023-01-17T16:23:50.924Z,5.91
2023-01-17T16:26:19.005Z,5.89
2023-01-17T16:28:47.353Z,5.91
2023-01-17T16:31:15.929Z,5.82
2023-01-17T16:33:43.785Z,5.75
2023-01-17T16:36:16.625Z,5.88
2023-01-17T16:38:45.805Z,5.75
2023-01-17T16:41:13.612Z,5.91
2023-01-17T16:43:41.492Z,5.85
2023-01-17T16:46:11.605Z,5.88
2023-01-17T16:48:39.300Z,5.84
2023-01-17T16:51:08.193Z,5.89
2023-01-17T16:53:36.661Z,5.78
2023-01-17T16:56:16.574Z,5.80
2023-01-17T16:58:44.516Z,5.79
2023-01-17T17:01:17.500Z,5.81
2023-01-17T17:03:45.427Z,5.88
2023-01-17T17:06:15.006Z,5.89
2023-01-17T17:08:43.707Z,5.75
2023-01-17T17:11:16.834Z,5.66
2023-01-17T17:13:47.286Z,5.74
2023-01-17T17:16:26.401Z,5.72
2023-01-17T17:19:07.598Z,5.69
2023-01-17T17:21:37.634Z,5.62
2023-01-17T17:24:05.931Z,5.64
2023-01-17T17:26:35.848Z,5.66
2023-01-17T17:29:05.433Z,5.68
2023-01-17T17:31:33.763Z,5.74
2023-01-17T17:34:05.036Z,5.52
2023-01-17T17:36:33.488Z,5.55
2023-01-17T17:39:03.572Z,5.55
2023-01-17T17:41:33.470Z,5.56
2023-01-17T17:44:02.402Z,5.66
2023-01-17T17:46:31.475Z,5.92
2023-01-17T17:48:59.698Z,5.85
2023-01-17T17:51:38.124Z,5.76
2023-01-17T17:54:11.277Z,5.82
2023-01-17T17:56:40.217Z,5.89
2023-01-17T17:59:09.304Z,5.93
2023-01-17T18:01:41.219Z,5.78
2023-01-17T18:04:09.519Z,5.79
2023-01-17T18:06:38.772Z,5.77
2023-01-17T18:09:08.737Z,5.88
2023-01-17T18:11:38.930Z,5.83
2023-01-17T18:14:09.633Z,5.74
2023-01-17T18:16:43.227Z,5.68
2023-01-17T18:19:22.448Z,5.63
2023-01-17T18:21:51.524Z,5.67
2023-01-17T18:24:22.319Z,5.71
2023-01-17T18:26:52.789Z,5.72
2023-01-17T18:29:22.575Z,5.77
2023-01-17T18:31:51.733Z,5.70
2023-01-17T18:34:23.930Z,5.71
2023-01-17T18:36:52.252Z,5.68
2023-01-17T18:39:26.415Z,5.69
2023-01-17T18:41:55.042Z,5.98
2023-01-17T18:44:23.192Z,5.89
2023-01-17T18:46:53.944Z,5.90
2023-01-17T18:49:22.201Z,5.99
2023-01-17T18:51:51.596Z,6.07
2023-01-17T18:54:20.495Z,5.71
2023-01-17T18:56:48.943Z,5.75
2023-01-17T18:59:21.490Z,5.64
2023-01-17T19:01:49.899Z,5.62
2023-01-17T19:04:18.360Z,5.67
2023-01-17T19:06:48.335Z,5.85
2023-01-17T19:09:17.306Z,5.89
2023-01-17T19:11:46.255Z,5.89
2023-01-17T19:14:14.752Z,6.00
2023-01-17T19:16:43.627Z,5.95
2023-01-17T19:19:15.660Z,5.75
2023-01-17T19:21:43.580Z,5.79
2023-01-17T19:24:13.433Z,5.75
2023-01-17T19:26:42.456Z,5.80
2023-01-17T19:29:10.513Z,5.63
2023-01-17T19:31:42.493Z,5.70
2023-01-17T19:34:13.966Z,5.59
2023-01-17T19:36:41.827Z,5.62
2023-01-17T19:39:10.051Z,5.71
2023-01-17T19:41:46.705Z,5.62
2023-01-17T19:44:15.290Z,5.57
2023-01-17T19:46:44.469Z,5.64
2023-01-17T19:49:12.352Z,5.68
2023-01-17T19:51:40.538Z,5.56
2023-01-17T19:54:08.695Z,5.59
2023-01-17T19:56:36.795Z,5.43
2023-01-17T19:59:04.645Z,5.55
2023-01-17T20:01:33.894Z,5.63
2023-01-17T20:04:03.317Z,5.80
2023-01-17T20:06:34.415Z,5.63
2023-01-17T20:09:02.628Z,5.66
2023-01-17T20:11:30.606Z,5.64
2023-01-17T20:13:59.856Z,5.64
2023-01-17T20:16:31.010Z,5.60
2023-01-17T20:19:01.068Z,5.54
2023-01-17T20:21:31.365Z,5.54
2023-01-17T20:24:00.880Z,5.58
2023-01-17T20:26:34.883Z,5.49
2023-01-17T20:29:13.941Z,5.57
2023-01-17T20:31:43.349Z,5.50
2023-01-17T20:34:14.583Z,5.51
2023-01-17T20:36:42.926Z,5.49
2023-01-17T20:39:14.045Z,5.57
2023-01-17T20:41:44.049Z,5.47
2023-01-17T20:44:14.842Z,5.54
2023-01-17T20:46:44.115Z,5.36
2023-01-17T20:49:17.207Z,5.47
2023-01-17T20:51:45.979Z,5.46
2023-01-17T20:54:16.344Z,5.42
2023-01-17T20:56:47.447Z,5.35
2023-01-17T20:59:17.900Z,5.31
2023-01-17T21:01:46.375Z,5.35
2023-01-17T21:04:14.819Z,5.32
2023-01-17T21:06:43.815Z,5.40
2023-01-17T21:09:14.027Z,5.33
2023-01-17T21:11:41.982Z,5.56
2023-01-17T21:14:09.984Z,5.50
2023-01-17T21:16:38.562Z,5.46
2023-01-17T21:19:06.633Z,5.32
2023-01-17T21:21:34.431Z,5.45
2023-01-17T21:24:02.305Z,5.57
2023-01-17T21:26:30.370Z,5.69
2023-01-17T21:28:58.852Z,5.77
2023-01-17T21:31:29.320Z,5.98
2023-01-17T21:34:03.298Z,5.81
2023-01-17T21:36:33.916Z,5.72
2023-01-17T21:39:07.086Z,5.62
2023-01-17T21:41:40.126Z,5.56
2023-01-17T21:44:13.962Z,5.40
2023-01-17T21:46:41.885Z,5.48
2023-01-17T21:49:12.005Z,5.61
2023-01-17T21:51:53.039Z,5.52
2023-01-17T21:54:44.327Z,5.58
2023-01-17T21:57:32.039Z,5.55
2023-01-17T21:59:59.892Z,5.87
2023-01-17T22:02:27.664Z,6.09
2023-01-17T22:04:56.319Z,6.12
2023-01-17T22:07:27.160Z,5.62
2023-01-17T22:09:55.215Z,5.58
2023-01-17T22:12:23.035Z,5.53
2023-01-17T22:14:50.738Z,5.84
2023-01-17T22:17:18.346Z,6.02
2023-01-17T22:19:46.212Z,6.21
2023-01-17T22:22:13.982Z,6.19
2023-01-17T22:24:41.620Z,6.25
2023-01-17T22:27:09.982Z,6.14
2023-01-17T22:29:38.083Z,6.05
2023-01-17T22:32:06.224Z,6.14
2023-01-17T22:34:33.997Z,6.04
2023-01-17T22:37:04.094Z,6.09
2023-01-17T22:39:31.888Z,6.03
2023-01-17T22:41:59.871Z,5.56
2023-01-17T22:44:27.502Z,5.87
2023-01-17T22:46:55.003Z,5.83
2023-01-17T22:49:23.750Z,6.06
2023-01-17T22:51:51.635Z,6.11
2023-01-17T22:54:19.687Z,5.94
2023-01-17T22:56:48.714Z,5.87
2023-01-17T22:59:16.731Z,5.33
2023-01-17T23:01:44.410Z,5.56
2023-01-17T23:04:17.284Z,5.65
2023-01-17T23:06:45.024Z,6.01
2023-01-17T23:09:14.956Z,5.89
2023-01-17T23:11:52.792Z,6.10
2023-01-17T23:14:21.895Z,5.73
2023-01-17T23:17:21.746Z,5.91
2023-01-17T23:19:54.613Z,6.00
2023-01-17T23:22:26.927Z,6.15
2023-01-17T23:25:00.536Z,6.04
2023-01-17T23:27:54.806Z,6.04
2023-01-17T23:30:34.824Z,6.08
2023-01-17T23:33:06.362Z,6.03
2023-01-17T23:35:41.496Z,5.80
2023-01-17T23:38:30.849Z,6.07
2023-01-17T23:41:22.908Z,5.79
2023-01-17T23:43:52.111Z,5.87
2023-01-17T23:46:20.150Z,5.90
2023-01-17T23:48:48.001Z,6.06
2023-01-17T23:51:15.652Z,5.52
2023-01-17T23:53:43.220Z,5.96
2023-01-17T23:56:16.745Z,6.07
2023-01-17T23:58:44.793Z,6.22
